sensor_id;sensor_type;location;lat;lon;timestamp;P1;durP1;ratioP1;P2;durP2;ratioP2
75371;SDS011;63956;52.006;5.878;2022-12-24T00:01:43;19.27;;;3.75;;
75371;SDS011;63956;52.006;5.878;2022-12-24T00:04:13;25.65;;;4.60;;
75371;SDS011;63956;52.006;5.878;2022-12-24T00:06:42;24.65;;;4.18;;
75371;SDS011;63956;52.006;5.878;2022-12-24T00:09:12;23.52;;;3.78;;
75371;SDS011;63956;52.006;5.878;2022-12-24T00:11:43;23.02;;;4.10;;
75371;SDS011;63956;52.006;5.878;2022-12-24T00:14:12;27.67;;;4.13;;
75371;SDS011;63956;52.006;5.878;2022-12-24T00:16:41;23.92;;;3.90;;
75371;SDS011;63956;52.006;5.878;2022-12-24T00:19:11;23.83;;;3.78;;
75371;SDS011;63956;52.006;5.878;2022-12-24T00:21:40;23.95;;;3.90;;
75371;SDS011;63956;52.006;5.878;2022-12-24T00:24:09;19.88;;;4.80;;
75371;SDS011;63956;52.006;5.878;2022-12-24T00:26:38;21.77;;;3.30;;
75371;SDS011;63956;52.006;5.878;2022-12-24T00:29:10;27.38;;;4.53;;
75371;SDS011;63956;52.006;5.878;2022-12-24T00:31:39;20.70;;;3.42;;
75371;SDS011;63956;52.006;5.878;2022-12-24T00:34:08;25.00;;;5.50;;
75371;SDS011;63956;52.006;5.878;2022-12-24T00:36:37;21.23;;;4.15;;
75371;SDS011;63956;52.006;5.878;2022-12-24T00:39:07;28.10;;;4.07;;
75371;SDS011;63956;52.006;5.878;2022-12-24T00:41:36;26.45;;;4.10;;
75371;SDS011;63956;52.006;5.878;2022-12-24T00:44:06;22.33;;;3.47;;
75371;SDS011;63956;52.006;5.878;2022-12-24T00:46:39;24.98;;;3.63;;
75371;SDS011;63956;52.006;5.878;2022-12-24T00:49:10;22.45;;;3.53;;
75371;SDS011;63956;52.006;5.878;2022-12-24T00:51:39;25.83;;;4.45;;
75371;SDS011;63956;52.006;5.878;2022-12-24T00:56:37;19.85;;;4.43;;
75371;SDS011;63956;52.006;5.878;2022-12-24T01:01:35;20.02;;;5.07;;
75371;SDS011;63956;52.006;5.878;2022-12-24T01:06:48;29.45;;;4.53;;
75371;SDS011;63956;52.006;5.878;2022-12-24T01:11:46;21.50;;;3.97;;
75371;SDS011;63956;52.006;5.878;2022-12-24T01:16:45;25.63;;;3.22;;
75371;SDS011;63956;52.006;5.878;2022-12-24T01:19:17;21.42;;;4.07;;
75371;SDS011;63956;52.006;5.878;2022-12-24T01:21:46;21.85;;;4.25;;
75371;SDS011;63956;52.006;5.878;2022-12-24T01:26:44;18.80;;;3.17;;
75371;SDS011;63956;52.006;5.878;2022-12-24T01:29:13;23.55;;;4.40;;
75371;SDS011;63956;52.006;5.878;2022-12-24T01:31:43;19.48;;;3.90;;
75371;SDS011;63956;52.006;5.878;2022-12-24T01:34:12;26.73;;;4.22;;
75371;SDS011;63956;52.006;5.878;2022-12-24T01:36:44;22.33;;;4.85;;
75371;SDS011;63956;52.006;5.878;2022-12-24T01:39:13;25.75;;;4.75;;
75371;SDS011;63956;52.006;5.878;2022-12-24T01:41:42;23.13;;;4.35;;
75371;SDS011;63956;52.006;5.878;2022-12-24T01:44:24;26.35;;;4.10;;
75371;SDS011;63956;52.006;5.878;2022-12-24T01:46:56;30.88;;;4.35;;
75371;SDS011;63956;52.006;5.878;2022-12-24T01:49:30;22.05;;;3.67;;
75371;SDS011;63956;52.006;5.878;2022-12-24T01:52:02;21.60;;;3.67;;
75371;SDS011;63956;52.006;5.878;2022-12-24T01:54:35;18.92;;;2.92;;
75371;SDS011;63956;52.006;5.878;2022-12-24T01:57:10;26.17;;;2.85;;
75371;SDS011;63956;52.006;5.878;2022-12-24T01:59:44;29.73;;;4.45;;
75371;SDS011;63956;52.006;5.878;2022-12-24T02:02:17;21.85;;;4.07;;
75371;SDS011;63956;52.006;5.878;2022-12-24T02:04:49;21.00;;;4.40;;
75371;SDS011;63956;52.006;5.878;2022-12-24T02:07:24;34.47;;;4.78;;
75371;SDS011;63956;52.006;5.878;2022-12-24T02:09:55;25.17;;;4.10;;
75371;SDS011;63956;52.006;5.878;2022-12-24T02:12:26;29.20;;;4.25;;
75371;SDS011;63956;52.006;5.878;2022-12-24T02:14:57;25.88;;;4.07;;
75371;SDS011;63956;52.006;5.878;2022-12-24T02:17:28;26.10;;;4.78;;
75371;SDS011;63956;52.006;5.878;2022-12-24T02:26:14;27.48;;;5.25;;
75371;SDS011;63956;52.006;5.878;2022-12-24T02:29:00;24.85;;;4.13;;
75371;SDS011;63956;52.006;5.878;2022-12-24T02:31:48;28.00;;;3.92;;
75371;SDS011;63956;52.006;5.878;2022-12-24T02:34:21;29.92;;;4.47;;
75371;SDS011;63956;52.006;5.878;2022-12-24T02:36:58;25.23;;;5.70;;
75371;SDS011;63956;52.006;5.878;2022-12-24T02:42:04;21.30;;;3.75;;
75371;SDS011;63956;52.006;5.878;2022-12-24T02:44:37;24.05;;;4.00;;
75371;SDS011;63956;52.006;5.878;2022-12-24T02:47:13;26.48;;;3.58;;
75371;SDS011;63956;52.006;5.878;2022-12-24T02:49:44;16.58;;;4.72;;
75371;SDS011;63956;52.006;5.878;2022-12-24T02:52:28;23.17;;;4.95;;
75371;SDS011;63956;52.006;5.878;2022-12-24T02:54:59;22.30;;;4.22;;
75371;SDS011;63956;52.006;5.878;2022-12-24T02:57:33;27.08;;;4.00;;
75371;SDS011;63956;52.006;5.878;2022-12-24T03:00:17;22.38;;;4.75;;
75371;SDS011;63956;52.006;5.878;2022-12-24T03:03:00;17.02;;;3.88;;
75371;SDS011;63956;52.006;5.878;2022-12-24T03:05:41;20.45;;;3.42;;
75371;SDS011;63956;52.006;5.878;2022-12-24T03:08:17;24.33;;;4.13;;
75371;SDS011;63956;52.006;5.878;2022-12-24T03:10:59;21.50;;;3.75;;
75371;SDS011;63956;52.006;5.878;2022-12-24T03:13:31;15.25;;;3.55;;
75371;SDS011;63956;52.006;5.878;2022-12-24T03:16:02;20.02;;;3.33;;
75371;SDS011;63956;52.006;5.878;2022-12-24T03:18:36;18.45;;;3.88;;
75371;SDS011;63956;52.006;5.878;2022-12-24T03:21:08;20.25;;;3.22;;
75371;SDS011;63956;52.006;5.878;2022-12-24T03:23:41;21.23;;;3.15;;
75371;SDS011;63956;52.006;5.878;2022-12-24T03:26:11;22.92;;;3.97;;
75371;SDS011;63956;52.006;5.878;2022-12-24T03:28:43;19.40;;;4.10;;
75371;SDS011;63956;52.006;5.878;2022-12-24T03:31:13;21.98;;;4.00;;
75371;SDS011;63956;52.006;5.878;2022-12-24T03:33:46;24.95;;;4.78;;
75371;SDS011;63956;52.006;5.878;2022-12-24T03:36:16;27.48;;;4.38;;
75371;SDS011;63956;52.006;5.878;2022-12-24T03:38:45;23.60;;;3.38;;
75371;SDS011;63956;52.006;5.878;2022-12-24T03:43:43;24.27;;;3.40;;
75371;SDS011;63956;52.006;5.878;2022-12-24T03:46:12;20.88;;;3.80;;
75371;SDS011;63956;52.006;5.878;2022-12-24T03:51:17;23.27;;;3.05;;
75371;SDS011;63956;52.006;5.878;2022-12-24T03:53:47;22.40;;;2.88;;
75371;SDS011;63956;52.006;5.878;2022-12-24T03:56:16;20.05;;;3.67;;
75371;SDS011;63956;52.006;5.878;2022-12-24T03:58:46;19.95;;;3.53;;
75371;SDS011;63956;52.006;5.878;2022-12-24T04:03:44;21.85;;;3.20;;
75371;SDS011;63956;52.006;5.878;2022-12-24T04:08:46;25.00;;;4.30;;
75371;SDS011;63956;52.006;5.878;2022-12-24T04:11:15;26.05;;;4.35;;
75371;SDS011;63956;52.006;5.878;2022-12-24T04:13:44;23.25;;;2.80;;
75371;SDS011;63956;52.006;5.878;2022-12-24T04:16:14;20.80;;;2.85;;
75371;SDS011;63956;52.006;5.878;2022-12-24T04:18:44;21.60;;;3.92;;
75371;SDS011;63956;52.006;5.878;2022-12-24T04:21:13;24.60;;;4.47;;
75371;SDS011;63956;52.006;5.878;2022-12-24T04:23:43;29.48;;;4.85;;
75371;SDS011;63956;52.006;5.878;2022-12-24T04:26:16;24.35;;;4.55;;
75371;SDS011;63956;52.006;5.878;2022-12-24T04:28:45;21.80;;;4.65;;
75371;SDS011;63956;52.006;5.878;2022-12-24T04:31:15;27.58;;;4.75;;
75371;SDS011;63956;52.006;5.878;2022-12-24T04:33:49;24.92;;;4.43;;
75371;SDS011;63956;52.006;5.878;2022-12-24T04:36:19;24.15;;;4.72;;
75371;SDS011;63956;52.006;5.878;2022-12-24T04:38:51;26.65;;;5.22;;
75371;SDS011;63956;52.006;5.878;2022-12-24T04:41:20;27.13;;;4.15;;
75371;SDS011;63956;52.006;5.878;2022-12-24T04:43:51;17.02;;;3.97;;
75371;SDS011;63956;52.006;5.878;2022-12-24T04:46:22;27.58;;;4.75;;
75371;SDS011;63956;52.006;5.878;2022-12-24T04:48:55;20.60;;;5.45;;
75371;SDS011;63956;52.006;5.878;2022-12-24T04:51:25;23.33;;;4.97;;
75371;SDS011;63956;52.006;5.878;2022-12-24T04:53:58;20.15;;;4.65;;
75371;SDS011;63956;52.006;5.878;2022-12-24T04:56:28;34.30;;;5.90;;
75371;SDS011;63956;52.006;5.878;2022-12-24T04:58:59;17.20;;;3.83;;
75371;SDS011;63956;52.006;5.878;2022-12-24T05:01:29;23.85;;;3.10;;
75371;SDS011;63956;52.006;5.878;2022-12-24T05:04:00;29.10;;;5.28;;
75371;SDS011;63956;52.006;5.878;2022-12-24T05:06:31;30.92;;;4.68;;
75371;SDS011;63956;52.006;5.878;2022-12-24T05:09:03;22.00;;;4.35;;
75371;SDS011;63956;52.006;5.878;2022-12-24T05:11:32;29.05;;;4.82;;
75371;SDS011;63956;52.006;5.878;2022-12-24T05:16:30;26.13;;;5.32;;
75371;SDS011;63956;52.006;5.878;2022-12-24T05:21:28;26.48;;;4.03;;
75371;SDS011;63956;52.006;5.878;2022-12-24T05:26:50;21.15;;;4.13;;
75371;SDS011;63956;52.006;5.878;2022-12-24T05:29:22;29.30;;;4.30;;
75371;SDS011;63956;52.006;5.878;2022-12-24T05:31:51;23.73;;;5.03;;
75371;SDS011;63956;52.006;5.878;2022-12-24T05:36:49;26.75;;;3.70;;
75371;SDS011;63956;52.006;5.878;2022-12-24T05:41:50;27.58;;;4.13;;
75371;SDS011;63956;52.006;5.878;2022-12-24T05:44:19;22.42;;;3.80;;
75371;SDS011;63956;52.006;5.878;2022-12-24T05:46:48;21.90;;;4.22;;
75371;SDS011;63956;52.006;5.878;2022-12-24T05:49:17;28.00;;;4.05;;
75371;SDS011;63956;52.006;5.878;2022-12-24T05:54:15;25.05;;;4.32;;
75371;SDS011;63956;52.006;5.878;2022-12-24T05:56:44;32.50;;;4.65;;
75371;SDS011;63956;52.006;5.878;2022-12-24T05:59:16;30.98;;;4.78;;
75371;SDS011;63956;52.006;5.878;2022-12-24T06:01:45;21.80;;;4.57;;
75371;SDS011;63956;52.006;5.878;2022-12-24T06:06:43;28.00;;;5.50;;
75371;SDS011;63956;52.006;5.878;2022-12-24T06:11:41;25.33;;;2.78;;
75371;SDS011;63956;52.006;5.878;2022-12-24T06:16:42;35.92;;;6.40;;
75371;SDS011;63956;52.006;5.878;2022-12-24T06:19:11;20.48;;;3.85;;
75371;SDS011;63956;52.006;5.878;2022-12-24T06:24:09;26.83;;;6.45;;
75371;SDS011;63956;52.006;5.878;2022-12-24T06:29:07;26.83;;;4.82;;
75371;SDS011;63956;52.006;5.878;2022-12-24T06:31:36;31.42;;;4.85;;
75371;SDS011;63956;52.006;5.878;2022-12-24T06:34:08;29.20;;;4.90;;
75371;SDS011;63956;52.006;5.878;2022-12-24T06:36:37;29.50;;;5.43;;
75371;SDS011;63956;52.006;5.878;2022-12-24T06:41:35;29.40;;;4.93;;
75371;SDS011;63956;52.006;5.878;2022-12-24T06:44:04;28.45;;;5.05;;
75371;SDS011;63956;52.006;5.878;2022-12-24T06:49:02;23.17;;;4.97;;
75371;SDS011;63956;52.006;5.878;2022-12-24T06:54:02;30.08;;;5.85;;
75371;SDS011;63956;52.006;5.878;2022-12-24T06:56:32;19.13;;;4.55;;
75371;SDS011;63956;52.006;5.878;2022-12-24T07:01:30;24.58;;;6.13;;
75371;SDS011;63956;52.006;5.878;2022-12-24T07:06:28;30.92;;;5.90;;
75371;SDS011;63956;52.006;5.878;2022-12-24T07:09:00;19.80;;;4.75;;
75371;SDS011;63956;52.006;5.878;2022-12-24T07:11:29;23.23;;;4.75;;
75371;SDS011;63956;52.006;5.878;2022-12-24T07:16:27;21.83;;;4.78;;
75371;SDS011;63956;52.006;5.878;2022-12-24T07:21:25;20.95;;;4.63;;
75371;SDS011;63956;52.006;5.878;2022-12-24T07:26:25;27.60;;;5.85;;
75371;SDS011;63956;52.006;5.878;2022-12-24T07:28:55;25.10;;;5.75;;
75371;SDS011;63956;52.006;5.878;2022-12-24T07:33:53;26.50;;;4.55;;
75371;SDS011;63956;52.006;5.878;2022-12-24T07:38:52;27.52;;;4.72;;
75371;SDS011;63956;52.006;5.878;2022-12-24T07:41:22;26.67;;;4.68;;
75371;SDS011;63956;52.006;5.878;2022-12-24T07:43:54;19.02;;;4.13;;
75371;SDS011;63956;52.006;5.878;2022-12-24T07:46:23;26.98;;;6.22;;
75371;SDS011;63956;52.006;5.878;2022-12-24T07:51:21;25.30;;;6.30;;
75371;SDS011;63956;52.006;5.878;2022-12-24T07:53:50;24.05;;;5.28;;
75371;SDS011;63956;52.006;5.878;2022-12-24T07:56:19;24.15;;;4.90;;
75371;SDS011;63956;52.006;5.878;2022-12-24T07:58:48;21.92;;;5.15;;
75371;SDS011;63956;52.006;5.878;2022-12-24T08:01:20;24.45;;;6.10;;
75371;SDS011;63956;52.006;5.878;2022-12-24T08:03:49;25.67;;;6.07;;
75371;SDS011;63956;52.006;5.878;2022-12-24T08:06:19;21.88;;;5.05;;
75371;SDS011;63956;52.006;5.878;2022-12-24T08:08:48;30.02;;;4.50;;
75371;SDS011;63956;52.006;5.878;2022-12-24T08:11:17;22.23;;;4.65;;
75371;SDS011;63956;52.006;5.878;2022-12-24T08:13:46;29.80;;;4.88;;
75371;SDS011;63956;52.006;5.878;2022-12-24T08:18:47;24.33;;;4.78;;
75371;SDS011;63956;52.006;5.878;2022-12-24T08:21:16;27.00;;;4.82;;
75371;SDS011;63956;52.006;5.878;2022-12-24T08:23:45;32.63;;;5.43;;
75371;SDS011;63956;52.006;5.878;2022-12-24T08:26:14;26.30;;;4.55;;
75371;SDS011;63956;52.006;5.878;2022-12-24T08:28:44;25.17;;;4.13;;
75371;SDS011;63956;52.006;5.878;2022-12-24T08:31:13;25.02;;;5.43;;
75371;SDS011;63956;52.006;5.878;2022-12-24T08:33:43;19.98;;;4.60;;
75371;SDS011;63956;52.006;5.878;2022-12-24T08:36:14;27.38;;;5.07;;
75371;SDS011;63956;52.006;5.878;2022-12-24T08:38:44;27.13;;;5.13;;
75371;SDS011;63956;52.006;5.878;2022-12-24T08:41:13;27.92;;;4.25;;
75371;SDS011;63956;52.006;5.878;2022-12-24T08:43:42;19.98;;;3.83;;
75371;SDS011;63956;52.006;5.878;2022-12-24T08:46:11;24.98;;;4.57;;
75371;SDS011;63956;52.006;5.878;2022-12-24T08:48:40;25.52;;;4.82;;
75371;SDS011;63956;52.006;5.878;2022-12-24T08:51:10;26.77;;;4.50;;
75371;SDS011;63956;52.006;5.878;2022-12-24T08:53:42;26.27;;;5.30;;
75371;SDS011;63956;52.006;5.878;2022-12-24T08:56:12;18.92;;;4.18;;
75371;SDS011;63956;52.006;5.878;2022-12-24T08:58:41;22.02;;;5.30;;
75371;SDS011;63956;52.006;5.878;2022-12-24T09:01:11;23.85;;;4.88;;
75371;SDS011;63956;52.006;5.878;2022-12-24T09:03:41;28.08;;;6.10;;
75371;SDS011;63956;52.006;5.878;2022-12-24T09:06:14;23.90;;;4.45;;
75371;SDS011;63956;52.006;5.878;2022-12-24T09:08:46;19.85;;;5.40;;
75371;SDS011;63956;52.006;5.878;2022-12-24T09:11:16;26.45;;;5.72;;
75371;SDS011;63956;52.006;5.878;2022-12-24T09:13:47;33.60;;;5.95;;
75371;SDS011;63956;52.006;5.878;2022-12-24T09:16:16;22.15;;;4.68;;
75371;SDS011;63956;52.006;5.878;2022-12-24T09:18:45;26.85;;;4.90;;
75371;SDS011;63956;52.006;5.878;2022-12-24T09:21:14;26.70;;;4.97;;
75371;SDS011;63956;52.006;5.878;2022-12-24T09:23:47;27.20;;;5.03;;
75371;SDS011;63956;52.006;5.878;2022-12-24T09:26:16;28.50;;;6.68;;
75371;SDS011;63956;52.006;5.878;2022-12-24T09:28:47;25.60;;;6.03;;
75371;SDS011;63956;52.006;5.878;2022-12-24T09:31:17;32.85;;;6.47;;
75371;SDS011;63956;52.006;5.878;2022-12-24T09:33:47;17.48;;;4.55;;
75371;SDS011;63956;52.006;5.878;2022-12-24T09:36:17;25.23;;;5.47;;
75371;SDS011;63956;52.006;5.878;2022-12-24T09:38:50;26.33;;;5.63;;
75371;SDS011;63956;52.006;5.878;2022-12-24T09:41:23;23.35;;;5.57;;
75371;SDS011;63956;52.006;5.878;2022-12-24T09:44:02;24.10;;;5.35;;
75371;SDS011;63956;52.006;5.878;2022-12-24T09:46:48;21.52;;;5.07;;
75371;SDS011;63956;52.006;5.878;2022-12-24T09:49:20;20.52;;;5.50;;
75371;SDS011;63956;52.006;5.878;2022-12-24T09:51:53;18.67;;;5.47;;
75371;SDS011;63956;52.006;5.878;2022-12-24T09:54:30;22.98;;;5.60;;
75371;SDS011;63956;52.006;5.878;2022-12-24T09:57:04;23.45;;;4.40;;
75371;SDS011;63956;52.006;5.878;2022-12-24T09:59:41;19.63;;;3.75;;
75371;SDS011;63956;52.006;5.878;2022-12-24T10:02:12;27.13;;;8.07;;
75371;SDS011;63956;52.006;5.878;2022-12-24T10:04:43;33.95;;;5.55;;
75371;SDS011;63956;52.006;5.878;2022-12-24T10:07:17;24.77;;;5.25;;
75371;SDS011;63956;52.006;5.878;2022-12-24T10:10:01;20.13;;;4.50;;
75371;SDS011;63956;52.006;5.878;2022-12-24T10:12:39;24.27;;;5.18;;
75371;SDS011;63956;52.006;5.878;2022-12-24T10:15:20;25.25;;;5.13;;
75371;SDS011;63956;52.006;5.878;2022-12-24T10:18:08;29.05;;;5.22;;
75371;SDS011;63956;52.006;5.878;2022-12-24T10:20:44;19.70;;;5.13;;
75371;SDS011;63956;52.006;5.878;2022-12-24T10:23:21;22.73;;;6.18;;
75371;SDS011;63956;52.006;5.878;2022-12-24T10:26:01;25.60;;;5.95;;
75371;SDS011;63956;52.006;5.878;2022-12-24T10:28:41;23.73;;;4.70;;
75371;SDS011;63956;52.006;5.878;2022-12-24T10:31:14;24.52;;;4.25;;
75371;SDS011;63956;52.006;5.878;2022-12-24T10:33:44;25.90;;;4.88;;
75371;SDS011;63956;52.006;5.878;2022-12-24T10:36:17;28.77;;;5.25;;
75371;SDS011;63956;52.006;5.878;2022-12-24T10:38:49;28.02;;;5.00;;
75371;SDS011;63956;52.006;5.878;2022-12-24T10:41:21;28.60;;;5.40;;
75371;SDS011;63956;52.006;5.878;2022-12-24T10:43:52;25.70;;;5.95;;
75371;SDS011;63956;52.006;5.878;2022-12-24T10:46:23;24.75;;;4.97;;
75371;SDS011;63956;52.006;5.878;2022-12-24T10:49:00;23.00;;;4.70;;
75371;SDS011;63956;52.006;5.878;2022-12-24T10:51:32;21.63;;;4.55;;
75371;SDS011;63956;52.006;5.878;2022-12-24T10:54:10;20.85;;;3.58;;
75371;SDS011;63956;52.006;5.878;2022-12-24T10:56:45;18.88;;;4.55;;
75371;SDS011;63956;52.006;5.878;2022-12-24T10:59:24;23.98;;;4.75;;
75371;SDS011;63956;52.006;5.878;2022-12-24T11:01:54;25.13;;;4.30;;
75371;SDS011;63956;52.006;5.878;2022-12-24T11:04:25;17.40;;;3.67;;
75371;SDS011;63956;52.006;5.878;2022-12-24T11:06:57;19.63;;;4.20;;
75371;SDS011;63956;52.006;5.878;2022-12-24T11:09:28;18.63;;;5.20;;
75371;SDS011;63956;52.006;5.878;2022-12-24T11:12:02;17.40;;;3.72;;
75371;SDS011;63956;52.006;5.878;2022-12-24T11:14:34;24.08;;;3.80;;
75371;SDS011;63956;52.006;5.878;2022-12-24T11:17:06;17.15;;;3.83;;
75371;SDS011;63956;52.006;5.878;2022-12-24T11:19:46;25.60;;;6.47;;
75371;SDS011;63956;52.006;5.878;2022-12-24T11:22:18;18.90;;;4.50;;
75371;SDS011;63956;52.006;5.878;2022-12-24T11:24:56;19.65;;;4.88;;
75371;SDS011;63956;52.006;5.878;2022-12-24T11:27:41;14.80;;;4.60;;
75371;SDS011;63956;52.006;5.878;2022-12-24T11:30:25;22.05;;;5.85;;
75371;SDS011;63956;52.006;5.878;2022-12-24T11:35:48;20.00;;;4.93;;
75371;SDS011;63956;52.006;5.878;2022-12-24T11:38:22;22.90;;;5.88;;
75371;SDS011;63956;52.006;5.878;2022-12-24T11:40:59;20.58;;;4.22;;
75371;SDS011;63956;52.006;5.878;2022-12-24T11:46:35;20.35;;;3.78;;
75371;SDS011;63956;52.006;5.878;2022-12-24T11:49:14;20.88;;;3.97;;
75371;SDS011;63956;52.006;5.878;2022-12-24T11:52:08;19.52;;;3.85;;
75371;SDS011;63956;52.006;5.878;2022-12-24T11:54:46;25.75;;;4.38;;
75371;SDS011;63956;52.006;5.878;2022-12-24T11:57:21;21.70;;;3.45;;
75371;SDS011;63956;52.006;5.878;2022-12-24T11:59:56;25.58;;;4.70;;
75371;SDS011;63956;52.006;5.878;2022-12-24T12:02:26;24.27;;;4.30;;
75371;SDS011;63956;52.006;5.878;2022-12-24T12:04:59;18.73;;;3.85;;
75371;SDS011;63956;52.006;5.878;2022-12-24T12:07:33;22.00;;;3.90;;
75371;SDS011;63956;52.006;5.878;2022-12-24T12:10:06;21.90;;;4.15;;
75371;SDS011;63956;52.006;5.878;2022-12-24T12:12:43;19.08;;;3.22;;
75371;SDS011;63956;52.006;5.878;2022-12-24T12:15:18;19.08;;;4.57;;
75371;SDS011;63956;52.006;5.878;2022-12-24T12:17:50;14.50;;;3.42;;
75371;SDS011;63956;52.006;5.878;2022-12-24T12:20:24;20.80;;;4.15;;
75371;SDS011;63956;52.006;5.878;2022-12-24T12:22:58;22.33;;;3.67;;
75371;SDS011;63956;52.006;5.878;2022-12-24T12:25:31;16.45;;;4.15;;
75371;SDS011;63956;52.006;5.878;2022-12-24T12:28:07;20.00;;;3.47;;
75371;SDS011;63956;52.006;5.878;2022-12-24T12:30:58;19.58;;;3.80;;
75371;SDS011;63956;52.006;5.878;2022-12-24T12:33:32;22.02;;;4.50;;
75371;SDS011;63956;52.006;5.878;2022-12-24T12:36:06;14.30;;;2.88;;
75371;SDS011;63956;52.006;5.878;2022-12-24T12:38:37;14.52;;;3.72;;
75371;SDS011;63956;52.006;5.878;2022-12-24T12:41:20;16.60;;;3.88;;
75371;SDS011;63956;52.006;5.878;2022-12-24T12:47:01;18.08;;;4.10;;
75371;SDS011;63956;52.006;5.878;2022-12-24T12:49:54;12.35;;;3.80;;
75371;SDS011;63956;52.006;5.878;2022-12-24T12:52:34;11.65;;;3.30;;
75371;SDS011;63956;52.006;5.878;2022-12-24T12:55:20;18.77;;;4.32;;
75371;SDS011;63956;52.006;5.878;2022-12-24T12:57:55;18.95;;;3.15;;
75371;SDS011;63956;52.006;5.878;2022-12-24T13:00:28;13.98;;;2.97;;
75371;SDS011;63956;52.006;5.878;2022-12-24T13:03:19;23.48;;;4.25;;
75371;SDS011;63956;52.006;5.878;2022-12-24T13:09:05;15.45;;;3.80;;
75371;SDS011;63956;52.006;5.878;2022-12-24T13:11:58;16.33;;;3.67;;
75371;SDS011;63956;52.006;5.878;2022-12-24T13:14:46;18.95;;;1.95;;
75371;SDS011;63956;52.006;5.878;2022-12-24T13:20:27;19.10;;;3.47;;
75371;SDS011;63956;52.006;5.878;2022-12-24T13:22:59;15.93;;;3.38;;
75371;SDS011;63956;52.006;5.878;2022-12-24T13:25:32;20.85;;;4.68;;
75371;SDS011;63956;52.006;5.878;2022-12-24T13:28:13;14.52;;;3.78;;
75371;SDS011;63956;52.006;5.878;2022-12-24T13:30:43;20.38;;;3.58;;
75371;SDS011;63956;52.006;5.878;2022-12-24T13:33:13;15.13;;;4.03;;
75371;SDS011;63956;52.006;5.878;2022-12-24T13:36:22;19.20;;;3.92;;
75371;SDS011;63956;52.006;5.878;2022-12-24T13:38:51;19.52;;;3.35;;
75371;SDS011;63956;52.006;5.878;2022-12-24T13:41:37;17.25;;;3.28;;
75371;SDS011;63956;52.006;5.878;2022-12-24T13:44:19;16.35;;;4.00;;
75371;SDS011;63956;52.006;5.878;2022-12-24T13:46:58;16.60;;;3.45;;
75371;SDS011;63956;52.006;5.878;2022-12-24T13:49:32;10.55;;;1.70;;
75371;SDS011;63956;52.006;5.878;2022-12-24T13:52:20;17.92;;;3.22;;
75371;SDS011;63956;52.006;5.878;2022-12-24T13:55:03;16.90;;;3.03;;
75371;SDS011;63956;52.006;5.878;2022-12-24T13:57:44;20.63;;;3.95;;
75371;SDS011;63956;52.006;5.878;2022-12-24T14:03:26;15.30;;;3.72;;
75371;SDS011;63956;52.006;5.878;2022-12-24T14:05:59;17.05;;;3.65;;
75371;SDS011;63956;52.006;5.878;2022-12-24T14:08:38;15.90;;;3.53;;
75371;SDS011;63956;52.006;5.878;2022-12-24T14:11:12;16.77;;;3.10;;
75371;SDS011;63956;52.006;5.878;2022-12-24T14:13:53;13.45;;;3.10;;
75371;SDS011;63956;52.006;5.878;2022-12-24T14:16:41;16.02;;;3.42;;
75371;SDS011;63956;52.006;5.878;2022-12-24T14:19:17;13.07;;;3.00;;
75371;SDS011;63956;52.006;5.878;2022-12-24T14:21:50;16.65;;;3.33;;
75371;SDS011;63956;52.006;5.878;2022-12-24T14:24:27;14.85;;;3.38;;
75371;SDS011;63956;52.006;5.878;2022-12-24T14:27:05;18.60;;;2.55;;
75371;SDS011;63956;52.006;5.878;2022-12-24T14:29:43;13.13;;;2.97;;
75371;SDS011;63956;52.006;5.878;2022-12-24T14:32:17;20.02;;;3.20;;
75371;SDS011;63956;52.006;5.878;2022-12-24T14:34:46;21.10;;;3.50;;
75371;SDS011;63956;52.006;5.878;2022-12-24T14:37:33;9.20;;;2.60;;
75371;SDS011;63956;52.006;5.878;2022-12-24T14:40:07;13.07;;;3.05;;
75371;SDS011;63956;52.006;5.878;2022-12-24T14:42:44;19.30;;;4.00;;
75371;SDS011;63956;52.006;5.878;2022-12-24T14:45:23;11.40;;;3.00;;
75371;SDS011;63956;52.006;5.878;2022-12-24T14:48:00;8.68;;;2.55;;
75371;SDS011;63956;52.006;5.878;2022-12-24T14:53:34;17.80;;;3.22;;
75371;SDS011;63956;52.006;5.878;2022-12-24T14:56:17;14.25;;;3.50;;
75371;SDS011;63956;52.006;5.878;2022-12-24T14:58:48;16.75;;;4.32;;
75371;SDS011;63956;52.006;5.878;2022-12-24T15:01:19;13.65;;;3.25;;
75371;SDS011;63956;52.006;5.878;2022-12-24T15:03:59;12.95;;;3.50;;
75371;SDS011;63956;52.006;5.878;2022-12-24T15:06:31;12.25;;;3.53;;
75371;SDS011;63956;52.006;5.878;2022-12-24T15:09:02;18.52;;;4.20;;
75371;SDS011;63956;52.006;5.878;2022-12-24T15:11:35;20.45;;;5.00;;
75371;SDS011;63956;52.006;5.878;2022-12-24T15:14:04;16.05;;;4.40;;
75371;SDS011;63956;52.006;5.878;2022-12-24T15:19:04;20.20;;;3.63;;
75371;SDS011;63956;52.006;5.878;2022-12-24T15:21:36;15.93;;;5.30;;
75371;SDS011;63956;52.006;5.878;2022-12-24T15:24:22;21.90;;;5.05;;
75371;SDS011;63956;52.006;5.878;2022-12-24T15:26:55;18.23;;;5.55;;
75371;SDS011;63956;52.006;5.878;2022-12-24T15:29:25;23.27;;;4.85;;
75371;SDS011;63956;52.006;5.878;2022-12-24T15:31:57;18.52;;;4.65;;
75371;SDS011;63956;52.006;5.878;2022-12-24T15:34:35;20.98;;;5.20;;
75371;SDS011;63956;52.006;5.878;2022-12-24T15:37:05;21.85;;;5.72;;
75371;SDS011;63956;52.006;5.878;2022-12-24T15:39:39;17.38;;;6.57;;
75371;SDS011;63956;52.006;5.878;2022-12-24T15:42:14;19.55;;;5.43;;
75371;SDS011;63956;52.006;5.878;2022-12-24T15:44:53;17.98;;;4.07;;
75371;SDS011;63956;52.006;5.878;2022-12-24T15:47:26;25.00;;;5.53;;
75371;SDS011;63956;52.006;5.878;2022-12-24T15:50:02;17.50;;;4.78;;
75371;SDS011;63956;52.006;5.878;2022-12-24T15:52:36;17.98;;;5.38;;
75371;SDS011;63956;52.006;5.878;2022-12-24T15:55:22;20.98;;;5.05;;
75371;SDS011;63956;52.006;5.878;2022-12-24T15:57:55;15.02;;;4.60;;
75371;SDS011;63956;52.006;5.878;2022-12-24T16:00:25;11.57;;;3.97;;
75371;SDS011;63956;52.006;5.878;2022-12-24T16:03:08;17.33;;;5.97;;
75371;SDS011;63956;52.006;5.878;2022-12-24T16:05:39;20.65;;;5.30;;
75371;SDS011;63956;52.006;5.878;2022-12-24T16:10:50;19.38;;;4.78;;
75371;SDS011;63956;52.006;5.878;2022-12-24T16:13:36;13.60;;;4.07;;
75371;SDS011;63956;52.006;5.878;2022-12-24T16:16:08;11.32;;;3.95;;
75371;SDS011;63956;52.006;5.878;2022-12-24T16:18:41;17.77;;;4.53;;
75371;SDS011;63956;52.006;5.878;2022-12-24T16:21:18;22.50;;;6.97;;
75371;SDS011;63956;52.006;5.878;2022-12-24T16:23:51;8.70;;;3.72;;
75371;SDS011;63956;52.006;5.878;2022-12-24T16:26:22;16.88;;;5.78;;
75371;SDS011;63956;52.006;5.878;2022-12-24T16:28:56;22.38;;;7.63;;
75371;SDS011;63956;52.006;5.878;2022-12-24T16:31:27;16.30;;;6.05;;
75371;SDS011;63956;52.006;5.878;2022-12-24T16:33:59;20.10;;;6.55;;
75371;SDS011;63956;52.006;5.878;2022-12-24T16:36:29;15.93;;;5.88;;
75371;SDS011;63956;52.006;5.878;2022-12-24T16:38:59;21.08;;;7.88;;
75371;SDS011;63956;52.006;5.878;2022-12-24T16:41:41;19.20;;;6.50;;
75371;SDS011;63956;52.006;5.878;2022-12-24T16:44:28;23.73;;;8.13;;
75371;SDS011;63956;52.006;5.878;2022-12-24T16:46:57;26.70;;;8.02;;
75371;SDS011;63956;52.006;5.878;2022-12-24T16:49:27;17.80;;;6.25;;
75371;SDS011;63956;52.006;5.878;2022-12-24T16:54:25;12.48;;;6.30;;
75371;SDS011;63956;52.006;5.878;2022-12-24T16:56:54;21.75;;;5.80;;
75371;SDS011;63956;52.006;5.878;2022-12-24T17:01:55;21.20;;;8.00;;
75371;SDS011;63956;52.006;5.878;2022-12-24T17:04:24;31.65;;;7.65;;
75371;SDS011;63956;52.006;5.878;2022-12-24T17:09:22;31.13;;;7.60;;
75371;SDS011;63956;52.006;5.878;2022-12-24T17:11:51;25.35;;;7.40;;
75371;SDS011;63956;52.006;5.878;2022-12-24T17:16:49;17.73;;;6.30;;
75371;SDS011;63956;52.006;5.878;2022-12-24T17:21:50;21.88;;;6.93;;